createdAt,value
2018-06-24T00:01:33.193Z,96579.88
2018-06-24T00:04:03.099Z,96577.61
2018-06-24T00:06:32.935Z,96579.00
2018-06-24T00:09:04.007Z,96576.06
2018-06-24T00:11:33.890Z,96572.55
2018-06-24T00:14:03.761Z,96571.40
2018-06-24T00:16:33.591Z,96566.89
2018-06-24T00:19:03.451Z,96569.63
2018-06-24T00:21:33.259Z,96566.27
2018-06-24T00:24:03.407Z,96561.80
2018-06-24T00:26:33.596Z,96562.19
2018-06-24T00:29:03.989Z,96560.61
2018-06-24T00:31:33.788Z,96554.56
2018-06-24T00:34:03.553Z,96557.91
2018-06-24T00:36:33.343Z,96552.42
2018-06-24T00:39:03.582Z,96554.38
2018-06-24T00:41:33.511Z,96552.99
2018-06-24T00:44:03.599Z,96550.45
2018-06-24T00:46:33.519Z,96554.95
2018-06-24T00:49:03.373Z,96550.66
2018-06-24T00:51:33.493Z,96552.80
2018-06-24T00:54:03.373Z,96550.63
2018-06-24T00:56:33.274Z,96551.22
2018-06-24T00:59:03.099Z,96544.79
2018-06-24T01:01:33.385Z,96536.38
2018-06-24T01:04:03.185Z,96538.75
2018-06-24T01:06:33.160Z,96543.03
2018-06-24T01:09:03.442Z,96540.30
2018-06-24T01:11:33.911Z,96533.06
2018-06-24T01:14:04.161Z,96531.67
2018-06-24T01:16:35.069Z,96530.52
2018-06-24T01:19:05.559Z,96525.22
2018-06-24T01:21:35.531Z,96528.91
2018-06-24T01:24:05.540Z,96519.54
2018-06-24T01:26:35.405Z,96522.11
2018-06-24T01:29:05.281Z,96516.03
2018-06-24T01:31:35.275Z,96522.67
2018-06-24T01:34:05.143Z,96514.27
2018-06-24T01:36:34.949Z,96509.17
2018-06-24T01:39:06.234Z,96516.20
2018-06-24T01:41:36.167Z,96518.34
2018-06-24T01:44:06.747Z,96515.36
2018-06-24T01:46:36.689Z,96511.25
2018-06-24T01:49:06.568Z,96509.29
2018-06-24T01:51:36.467Z,96513.58
2018-06-24T01:54:06.364Z,96508.30
2018-06-24T01:56:36.284Z,96509.24
2018-06-24T01:59:06.106Z,96509.84
2018-06-24T02:01:36.212Z,96511.83
2018-06-24T02:04:06.700Z,96507.31
2018-06-24T02:06:36.837Z,96502.67
2018-06-24T02:09:11.873Z,96499.03
2018-06-24T02:11:41.956Z,96509.42
2018-06-24T02:14:11.825Z,96501.81
2018-06-24T02:16:41.860Z,96498.29
2018-06-24T02:19:11.919Z,96502.98
2018-06-24T02:21:41.778Z,96497.11
2018-06-24T02:24:11.583Z,96499.03
2018-06-24T02:26:41.440Z,96491.27
2018-06-24T02:29:11.261Z,96489.11
2018-06-24T02:31:41.764Z,96487.36
2018-06-24T02:34:11.524Z,96487.36
2018-06-24T02:36:41.356Z,96485.98
2018-06-24T02:39:11.708Z,96484.44
2018-06-24T02:41:41.879Z,96481.70
2018-06-24T02:44:11.449Z,96483.84
2018-06-24T02:46:41.661Z,96479.77
2018-06-24T02:49:11.864Z,96482.68
2018-06-24T02:51:41.802Z,96483.05
2018-06-24T02:54:11.936Z,96479.71
2018-06-24T02:56:42.193Z,96477.53
2018-06-24T02:59:12.043Z,96478.28
2018-06-24T03:01:41.916Z,96473.42
2018-06-24T03:04:11.725Z,96484.55
2018-06-24T03:06:41.975Z,96478.11
2018-06-24T03:09:12.331Z,96478.03
2018-06-24T03:11:42.285Z,96476.61
2018-06-24T03:14:12.084Z,96473.90
2018-06-24T03:16:41.885Z,96480.03
2018-06-24T03:19:11.994Z,96472.08
2018-06-24T03:21:41.677Z,96478.52
2018-06-24T03:24:12.322Z,96477.28
2018-06-24T03:26:42.161Z,96479.05
2018-06-24T03:29:12.088Z,96487.23
2018-06-24T03:31:41.968Z,96487.16
2018-06-24T03:34:11.797Z,96482.65
2018-06-24T03:36:41.684Z,96476.62
2018-06-24T03:39:12.578Z,96477.67
2018-06-24T03:41:42.452Z,96474.53
2018-06-24T03:44:12.338Z,96471.55
2018-06-24T03:46:42.434Z,96469.06
2018-06-24T03:49:12.728Z,96477.70
2018-06-24T03:51:42.606Z,96474.25
2018-06-24T03:54:12.415Z,96471.73
2018-06-24T03:56:42.347Z,96472.67
2018-06-24T03:59:12.244Z,96469.98
2018-06-24T04:01:42.176Z,96469.89
2018-06-24T04:04:11.964Z,96478.31
2018-06-24T04:06:41.778Z,96482.56
2018-06-24T04:09:12.028Z,96481.81
2018-06-24T04:11:41.871Z,96482.08
2018-06-24T04:14:11.752Z,96481.46
2018-06-24T04:16:41.842Z,96481.53
2018-06-24T04:19:12.202Z,96484.38
2018-06-24T04:21:42.234Z,96486.16
2018-06-24T04:24:12.288Z,96486.67
2018-06-24T04:26:42.068Z,96488.41
2018-06-24T04:29:11.897Z,96489.98
2018-06-24T04:31:41.948Z,96488.30
2018-06-24T04:34:12.084Z,96481.02
2018-06-24T04:36:42.120Z,96487.73
2018-06-24T04:39:12.371Z,96487.80
2018-06-24T04:41:42.238Z,96488.17
2018-06-24T04:44:12.284Z,96484.83
2018-06-24T04:46:42.436Z,96484.84
2018-06-24T04:49:12.267Z,96478.83
2018-06-24T04:51:42.559Z,96473.28
2018-06-24T04:54:12.777Z,96473.27
2018-06-24T04:56:42.688Z,96472.67
2018-06-24T04:59:12.566Z,96476.44
2018-06-24T05:01:42.477Z,96471.55
2018-06-24T05:04:12.432Z,96468.49
2018-06-24T05:06:42.522Z,96472.09
2018-06-24T05:09:12.820Z,96469.30
2018-06-24T05:11:42.960Z,96473.92
2018-06-24T05:14:12.865Z,96468.61
2018-06-24T05:16:42.768Z,96467.63
2018-06-24T05:19:13.226Z,96462.84
2018-06-24T05:21:43.433Z,96466.81
2018-06-24T05:24:14.064Z,96472.38
2018-06-24T05:26:43.518Z,96471.09
2018-06-24T05:29:13.336Z,96473.60
2018-06-24T05:31:43.539Z,96475.31
2018-06-24T05:34:13.388Z,96482.06
2018-06-24T05:36:44.179Z,96478.92
2018-06-24T05:39:14.374Z,96478.66
2018-06-24T05:41:44.239Z,96472.48
2018-06-24T05:44:14.080Z,96472.19
2018-06-24T05:46:43.884Z,96469.45
2018-06-24T05:49:13.878Z,96474.75
2018-06-24T05:51:44.517Z,96469.80
2018-06-24T05:54:14.471Z,96478.18
2018-06-24T05:56:44.493Z,96476.99
2018-06-24T05:59:14.825Z,96477.72
2018-06-24T06:01:44.932Z,96476.23
2018-06-24T06:04:15.162Z,96470.14
2018-06-24T06:06:45.030Z,96469.88
2018-06-24T06:09:14.912Z,96464.39
2018-06-24T06:11:44.832Z,96468.20
2018-06-24T06:14:14.916Z,96467.96
2018-06-24T06:16:44.809Z,96466.86
2018-06-24T06:19:14.679Z,96461.70
2018-06-24T06:21:44.512Z,96462.91
2018-06-24T06:24:14.451Z,96464.02
2018-06-24T06:26:44.415Z,96464.86
2018-06-24T06:29:14.621Z,96466.61
2018-06-24T06:31:44.769Z,96455.25
2018-06-24T06:34:14.651Z,96450.76
2018-06-24T06:36:44.502Z,96453.17
2018-06-24T06:39:14.993Z,96457.58
2018-06-24T06:41:44.861Z,96450.14
2018-06-24T06:44:14.705Z,96446.09
2018-06-24T06:46:44.894Z,96451.69
2018-06-24T06:49:15.085Z,96446.70
2018-06-24T06:51:44.975Z,96452.86
2018-06-24T06:54:15.161Z,96449.27
2018-06-24T06:56:45.085Z,96448.52
2018-06-24T06:59:15.017Z,96452.77
2018-06-24T07:01:44.997Z,96457.12
2018-06-24T07:04:15.216Z,96453.03
2018-06-24T07:06:45.093Z,96449.09
2018-06-24T07:09:15.113Z,96443.77
2018-06-24T07:11:44.970Z,96450.25
2018-06-24T07:14:14.791Z,96446.09
2018-06-24T07:16:44.609Z,96454.08
2018-06-24T07:19:14.504Z,96453.59
2018-06-24T07:21:44.423Z,96451.69
2018-06-24T07:24:14.267Z,96449.03
2018-06-24T07:26:44.147Z,96451.78
2018-06-24T07:29:13.938Z,96455.20
2018-06-24T07:31:43.801Z,96446.52
2018-06-24T07:34:13.892Z,96446.32
2018-06-24T07:36:44.098Z,96444.36
2018-06-24T07:39:14.395Z,96446.80
2018-06-24T07:41:45.150Z,96446.78
2018-06-24T07:44:15.425Z,96431.98
2018-06-24T07:46:45.601Z,96432.01
2018-06-24T07:49:15.763Z,96430.92
2018-06-24T07:51:45.955Z,96435.55
2018-06-24T07:54:15.830Z,96436.46
2018-06-24T07:56:45.714Z,96437.16
2018-06-24T07:59:15.951Z,96435.09
2018-06-24T08:01:46.060Z,96431.57
2018-06-24T08:04:15.953Z,96433.09
2018-06-24T08:06:46.088Z,96426.95
2018-06-24T08:09:16.301Z,96431.16
2018-06-24T08:11:46.205Z,96434.45
2018-06-24T08:14:16.330Z,96430.62
2018-06-24T08:16:46.128Z,96424.30
2018-06-24T08:19:16.011Z,96425.06
2018-06-24T08:21:45.502Z,96428.88
2018-06-24T08:24:15.445Z,96427.16
2018-06-24T08:26:45.755Z,96432.39
2018-06-24T08:29:15.579Z,96433.23
2018-06-24T08:31:45.503Z,96422.88
2018-06-24T08:34:15.737Z,96429.40
2018-06-24T08:36:45.877Z,96420.88
2018-06-24T08:39:15.690Z,96415.19
2018-06-24T08:41:45.611Z,96422.36
2018-06-24T08:44:15.439Z,96422.45
2018-06-24T08:46:45.363Z,96415.85
2018-06-24T08:49:15.241Z,96412.02
2018-06-24T08:51:45.224Z,96415.19
2018-06-24T08:54:15.066Z,96404.30
2018-06-24T09:03:33.883Z,96409.52
2018-06-24T09:06:03.849Z,96415.00
2018-06-24T09:08:34.151Z,96409.75
2018-06-24T09:11:04.081Z,96412.40
2018-06-24T09:13:33.951Z,96413.95
2018-06-24T09:16:04.345Z,96408.89
2018-06-24T09:18:34.578Z,96407.50
2018-06-24T09:21:04.680Z,96407.25
2018-06-24T09:23:34.629Z,96410.94
2018-06-24T09:26:04.576Z,96407.50
2018-06-24T09:28:34.860Z,96410.08
2018-06-24T09:31:04.945Z,96410.23
2018-06-24T09:33:34.827Z,96413.10
2018-06-24T09:36:04.636Z,96411.98
2018-06-24T09:38:34.536Z,96413.22
2018-06-24T09:41:04.718Z,96418.14
2018-06-24T09:43:34.876Z,96416.42
2018-06-24T09:46:05.108Z,96407.95
2018-06-24T09:48:34.992Z,96411.02
2018-06-24T09:51:05.027Z,96408.16
2018-06-24T09:53:34.898Z,96415.48
2018-06-24T09:56:04.732Z,96412.02
2018-06-24T09:58:34.621Z,96412.27
2018-06-24T10:01:04.608Z,96405.45
2018-06-24T10:03:34.937Z,96409.84
2018-06-24T10:06:05.507Z,96406.88
2018-06-24T10:08:35.298Z,96402.94
2018-06-24T10:11:05.230Z,96412.63
2018-06-24T10:13:35.312Z,96406.38
2018-06-24T10:16:05.184Z,96408.41
2018-06-24T10:18:35.057Z,96399.34
2018-06-24T10:21:05.734Z,96391.58
2018-06-24T10:23:35.612Z,96396.37
2018-06-24T10:26:05.523Z,96393.31
2018-06-24T10:28:35.876Z,96394.15
2018-06-24T10:31:06.340Z,96395.94
2018-06-24T10:33:36.740Z,96393.63
2018-06-24T10:36:07.160Z,96393.44
2018-06-24T10:38:37.518Z,96388.66
2018-06-24T10:41:08.139Z,96389.83
2018-06-24T10:43:38.826Z,96385.19
2018-06-24T10:46:09.248Z,96388.78
2018-06-24T10:48:39.658Z,96385.74
2018-06-24T10:51:10.035Z,96384.42
2018-06-24T10:53:40.580Z,96382.84
2018-06-24T10:56:11.002Z,96377.38
2018-06-24T10:58:42.104Z,96383.39
2018-06-24T11:01:12.663Z,96381.28
2018-06-24T11:03:43.152Z,96373.89
2018-06-24T11:07:43.312Z,96374.54
2018-06-24T11:10:14.919Z,96366.45
2018-06-24T11:12:46.199Z,96364.28
2018-06-24T11:15:17.348Z,96367.86
2018-06-24T11:17:48.301Z,96362.39
2018-06-24T11:20:19.512Z,96366.23
2018-06-24T11:22:50.889Z,96359.77
2018-06-24T11:25:21.403Z,96355.85
2018-06-24T11:27:51.935Z,96349.23
2018-06-24T11:30:22.465Z,96342.77
2018-06-24T11:32:53.213Z,96338.78
2018-06-24T11:35:24.630Z,96345.20
2018-06-24T11:37:55.183Z,96338.23
2018-06-24T11:40:25.911Z,96332.34
2018-06-24T11:42:56.402Z,96338.61
2018-06-24T11:45:27.152Z,96336.55
2018-06-24T11:47:57.919Z,96336.39
2018-06-24T11:50:29.156Z,96334.68
2018-06-24T11:52:59.624Z,96320.37
2018-06-24T11:55:30.525Z,96335.53
2018-06-24T11:58:01.070Z,96327.67
2018-06-24T12:00:31.588Z,96329.05
2018-06-24T12:03:02.482Z,96317.55
2018-06-24T12:05:33.313Z,96323.56
2018-06-24T12:08:04.198Z,96320.00
2018-06-24T12:10:34.647Z,96323.27
2018-06-24T12:13:06.190Z,96316.94
2018-06-24T12:15:36.578Z,96321.89
2018-06-24T12:18:08.021Z,96321.09
2018-06-24T12:20:39.302Z,96316.14
2018-06-24T12:23:09.827Z,96314.60
2018-06-24T12:25:40.338Z,96320.18
2018-06-24T12:28:10.890Z,96311.07
2018-06-24T12:30:41.327Z,96307.23
2018-06-24T12:33:11.340Z,96301.23
2018-06-24T12:35:42.067Z,96302.01
2018-06-24T12:38:12.660Z,96301.70
2018-06-24T12:40:43.404Z,96300.09
2018-06-24T12:43:14.138Z,96300.40
2018-06-24T12:45:45.255Z,96310.67
2018-06-24T12:48:16.367Z,96304.53
2018-06-24T12:50:47.251Z,96297.93
2018-06-24T12:53:17.642Z,96299.47
2018-06-24T12:55:48.567Z,96292.52
2018-06-24T12:58:19.214Z,96293.76
2018-06-24T13:00:50.468Z,96294.39
2018-06-24T13:03:21.872Z,96292.23
2018-06-24T13:05:52.381Z,96287.10
2018-06-24T13:08:23.114Z,96280.79
2018-06-24T13:10:53.552Z,96282.45
2018-06-24T13:13:23.940Z,96281.77
2018-06-24T13:15:54.466Z,96284.67
2018-06-24T13:18:25.234Z,96282.80
2018-06-24T13:20:56.016Z,96285.74
2018-06-24T13:23:27.580Z,96285.42
2018-06-24T13:25:58.088Z,96274.42
2018-06-24T13:28:28.939Z,96271.83
2018-06-24T13:30:59.253Z,96275.47
2018-06-24T13:33:29.662Z,96267.78
2018-06-24T13:36:00.158Z,96275.09
2018-06-24T13:38:30.650Z,96277.61
2018-06-24T13:41:01.270Z,96277.11
2018-06-24T13:43:31.685Z,96282.06
2018-06-24T13:46:02.545Z,96280.75
2018-06-24T13:48:33.388Z,96277.54
2018-06-24T13:51:03.930Z,96282.22
2018-06-24T13:53:34.959Z,96284.61
2018-06-24T13:56:05.716Z,96281.19
2018-06-24T13:58:36.583Z,96284.28
2018-06-24T14:01:07.209Z,96280.02
2018-06-24T14:03:37.738Z,96275.97
2018-06-24T14:06:08.349Z,96271.05
2018-06-24T14:08:38.957Z,96274.78
2018-06-24T14:11:09.343Z,96268.73
2018-06-24T14:13:39.750Z,96273.67
2018-06-24T14:16:10.143Z,96269.38
2018-06-24T14:18:41.267Z,96263.77
2018-06-24T14:21:12.189Z,96266.22
2018-06-24T14:23:43.695Z,96264.68
2018-06-24T14:26:14.231Z,96264.73
2018-06-24T14:28:44.681Z,96263.19
2018-06-24T14:31:15.078Z,96262.62
2018-06-24T14:33:45.672Z,96256.89
2018-06-24T14:36:16.125Z,96265.64
2018-06-24T14:38:47.152Z,96262.46
2018-06-24T14:41:18.954Z,96261.97
2018-06-24T14:43:50.499Z,96262.27
2018-06-24T14:46:21.166Z,96263.70
2018-06-24T14:48:51.850Z,96256.78
2018-06-24T14:51:22.309Z,96252.17
2018-06-24T14:53:53.055Z,96249.84
2018-06-24T14:56:23.494Z,96253.52
2018-06-24T14:58:53.962Z,96250.66
2018-06-24T15:01:24.521Z,96250.59
2018-06-24T15:03:56.047Z,96248.84
2018-06-24T15:06:26.802Z,96242.14
2018-06-24T15:08:57.782Z,96247.65
2018-06-24T15:11:27.926Z,96246.83
2018-06-24T15:13:58.352Z,96244.30
2018-06-24T15:16:28.758Z,96237.22
2018-06-24T15:18:59.164Z,96237.27
2018-06-24T15:21:29.884Z,96244.97
2018-06-24T15:24:01.651Z,96234.61
2018-06-24T15:26:32.424Z,96247.99
2018-06-24T15:29:03.001Z,96236.81
2018-06-24T15:31:34.011Z,96243.32
2018-06-24T15:34:04.498Z,96238.85
2018-06-24T15:36:34.947Z,96240.34
2018-06-24T15:39:09.871Z,96238.98
2018-06-24T15:41:40.913Z,96233.44
2018-06-24T15:44:12.463Z,96233.44
2018-06-24T15:46:43.001Z,96234.69
2018-06-24T15:49:13.493Z,96239.94
2018-06-24T15:51:43.899Z,96230.11
2018-06-24T15:54:14.274Z,96229.48
2018-06-24T15:56:45.190Z,96224.84
2018-06-24T15:59:15.979Z,96224.02
2018-06-24T16:01:46.431Z,96219.97
2018-06-24T16:04:16.939Z,96223.19
2018-06-24T16:06:47.349Z,96219.39
2018-06-24T16:09:17.697Z,96221.48
2018-06-24T16:11:48.493Z,96219.56
2018-06-24T16:14:19.253Z,96217.73
2018-06-24T16:16:50.696Z,96218.65
2018-06-24T16:19:21.133Z,96222.34
2018-06-24T16:21:51.898Z,96225.11
2018-06-24T16:24:22.394Z,96227.11
2018-06-24T16:26:52.898Z,96223.42
2018-06-24T16:29:23.801Z,96218.56
2018-06-24T16:31:54.530Z,96219.42
2018-06-24T16:34:25.278Z,96216.72
2018-06-24T16:36:56.369Z,96228.80
2018-06-24T16:39:26.935Z,96224.45
2018-06-24T16:41:57.317Z,96226.54
2018-06-24T16:44:27.773Z,96234.89
2018-06-24T16:46:58.647Z,96228.64
2018-06-24T16:49:29.435Z,96225.19
2018-06-24T16:52:00.229Z,96240.62
2018-06-24T16:54:30.647Z,96234.02
2018-06-24T16:57:01.084Z,96231.15
2018-06-24T16:59:31.911Z,96237.05
2018-06-24T17:02:02.981Z,96232.17
2018-06-24T17:04:33.339Z,96223.42
2018-06-24T17:07:03.768Z,96232.70
2018-06-24T17:09:34.251Z,96231.13
2018-06-24T17:12:04.987Z,96236.81
2018-06-24T17:14:35.431Z,96240.14
2018-06-24T17:17:05.976Z,96238.52
2018-06-24T17:19:36.771Z,96246.44
2018-06-24T17:22:07.251Z,96252.27
2018-06-24T17:24:37.836Z,96251.86
2018-06-24T17:27:08.831Z,96253.52
2018-06-24T17:29:39.589Z,96256.55
2018-06-24T17:32:10.298Z,96252.89
2018-06-24T17:34:40.953Z,96250.98
2018-06-24T17:37:11.403Z,96246.23
2018-06-24T17:39:41.849Z,96248.22
2018-06-24T17:42:12.325Z,96248.42
2018-06-24T17:44:42.753Z,96255.89
2018-06-24T17:47:13.784Z,96247.75
2018-06-24T17:49:44.857Z,96259.14
2018-06-24T17:52:15.495Z,96253.98
2018-06-24T17:54:45.963Z,96254.83
2018-06-24T17:57:16.755Z,96261.38
2018-06-24T17:59:48.234Z,96256.30
2018-06-24T18:02:18.746Z,96259.34
2018-06-24T18:04:49.283Z,96257.45
2018-06-24T18:07:19.684Z,96260.33
2018-06-24T18:09:50.491Z,96258.73
2018-06-24T18:12:20.997Z,96259.14
2018-06-24T18:14:51.105Z,96266.14
2018-06-24T18:17:21.825Z,96263.71
2018-06-24T18:19:52.500Z,96266.61
2018-06-24T18:22:23.144Z,96270.95
2018-06-24T18:24:53.923Z,96265.75
2018-06-24T18:27:23.843Z,96260.63
2018-06-24T18:29:53.690Z,96261.22
2018-06-24T18:32:24.229Z,96257.08
2018-06-24T18:34:54.515Z,96255.38
2018-06-24T18:37:25.020Z,96263.55
2018-06-24T18:39:55.279Z,96266.48
2018-06-24T18:42:25.181Z,96263.38
2018-06-24T18:44:55.583Z,96262.21
2018-06-24T18:47:25.689Z,96262.66
2018-06-24T18:49:55.665Z,96265.17
2018-06-24T18:52:25.506Z,96268.03
2018-06-24T18:54:56.221Z,96276.03
2018-06-24T18:57:26.467Z,96272.08
2018-06-24T18:59:56.308Z,96275.65
2018-06-24T19:02:27.603Z,96276.91
2018-06-24T19:04:57.605Z,96271.06
2018-06-24T19:07:27.512Z,96283.69
2018-06-24T19:09:57.402Z,96280.55
2018-06-24T19:12:27.590Z,96286.25
2018-06-24T19:14:57.465Z,96292.09
2018-06-24T19:18:56.412Z,96292.61
2018-06-24T19:21:26.414Z,96289.95
2018-06-24T19:23:56.014Z,96295.98
2018-06-24T19:26:26.289Z,96304.98
2018-06-24T19:28:56.260Z,96303.14
2018-06-24T19:31:26.092Z,96305.56
2018-06-24T19:33:56.006Z,96305.81
2018-06-24T19:36:26.658Z,96306.08
2018-06-24T19:38:56.581Z,96311.35
2018-06-24T19:41:26.496Z,96316.42
2018-06-24T19:43:58.741Z,96317.98
2018-06-24T19:46:28.805Z,96317.05
2018-06-24T19:48:58.754Z,96323.58
2018-06-24T19:51:28.702Z,96325.48
2018-06-24T19:53:58.621Z,96328.08
2018-06-24T19:56:28.852Z,96326.70
2018-06-24T19:58:58.700Z,96332.38
2018-06-24T20:01:28.580Z,96339.45
2018-06-24T20:03:59.218Z,96334.02
2018-06-24T20:06:29.508Z,96337.22
2018-06-24T20:08:59.390Z,96336.36
2018-06-24T20:11:29.576Z,96339.11
2018-06-24T20:13:59.834Z,96337.61
2018-06-24T20:16:29.741Z,96341.64
2018-06-24T20:18:59.722Z,96344.13
2018-06-24T20:21:29.714Z,96341.81
2018-06-24T20:23:59.664Z,96345.05
2018-06-24T20:26:29.646Z,96354.95
2018-06-24T20:28:59.916Z,96351.45
2018-06-24T20:31:30.461Z,96349.36
2018-06-24T20:34:00.458Z,96353.08
2018-06-24T20:36:30.322Z,96351.58
2018-06-24T20:39:00.244Z,96352.30
2018-06-24T20:41:30.246Z,96352.83
2018-06-24T20:44:00.722Z,96356.08
2018-06-24T20:46:30.966Z,96355.39
2018-06-24T20:49:01.679Z,96358.55
2018-06-24T20:51:31.516Z,96357.48
2018-06-24T20:54:01.716Z,96362.30
2018-06-24T20:56:31.614Z,96368.84
2018-06-24T20:59:01.893Z,96363.73
2018-06-24T21:01:32.218Z,96360.94
2018-06-24T21:04:02.116Z,96363.11
2018-06-24T21:06:31.994Z,96361.03
2018-06-24T21:09:02.342Z,96359.37
2018-06-24T21:11:32.288Z,96367.08
2018-06-24T21:14:02.628Z,96370.02
2018-06-24T21:16:32.507Z,96367.13
2018-06-24T21:19:02.390Z,96369.40
2018-06-24T21:21:32.366Z,96362.36
2018-06-24T21:24:02.359Z,96359.91
2018-06-24T21:26:32.174Z,96362.02
2018-06-24T21:29:02.408Z,96357.16
2018-06-24T21:31:32.474Z,96359.52
2018-06-24T21:34:02.398Z,96357.16
2018-06-24T21:36:32.188Z,96360.31
2018-06-24T21:39:02.076Z,96363.20
2018-06-24T21:41:32.090Z,96356.13
2018-06-24T21:44:02.152Z,96358.67
2018-06-24T21:46:32.066Z,96356.48
2018-06-24T21:49:01.960Z,96357.15
2018-06-24T21:51:31.850Z,96356.42
2018-06-24T21:54:02.466Z,96361.33
2018-06-24T21:56:32.654Z,96363.29
2018-06-24T21:59:02.878Z,96352.64
2018-06-24T22:01:33.113Z,96359.95
2018-06-24T22:04:02.992Z,96357.73
2018-06-24T22:06:32.947Z,96355.40
2018-06-24T22:09:03.312Z,96357.70
2018-06-24T22:11:33.163Z,96357.20
2018-06-24T22:14:03.108Z,96355.19
2018-06-24T22:16:33.045Z,96359.61
2018-06-24T22:19:02.976Z,96360.39
2018-06-24T22:21:33.039Z,96358.28
2018-06-24T22:24:02.855Z,96355.93
2018-06-24T22:26:32.734Z,96356.51
2018-06-24T22:29:02.589Z,96360.64
2018-06-24T22:31:32.432Z,96355.88
2018-06-24T22:34:02.397Z,96360.06
2018-06-24T22:36:32.284Z,96358.69
2018-06-24T22:39:04.106Z,96354.55
2018-06-24T22:41:34.153Z,96351.45
2018-06-24T22:44:04.233Z,96353.56
2018-06-24T22:46:34.333Z,96354.94
2018-06-24T22:49:04.887Z,96361.38
2018-06-24T22:51:34.814Z,96360.83
2018-06-24T22:54:06.536Z,96351.56
2018-06-24T22:56:36.927Z,96355.30
2018-06-24T22:59:23.393Z,96356.31
2018-06-24T23:01:53.457Z,96351.20
2018-06-24T23:11:35.556Z,96351.11
2018-06-24T23:14:05.532Z,96360.60
2018-06-24T23:16:35.427Z,96364.48
2018-06-24T23:19:05.569Z,96362.69
2018-06-24T23:21:35.489Z,96366.20
2018-06-24T23:24:05.665Z,96367.50
2018-06-24T23:26:36.023Z,96369.34
2018-06-24T23:29:06.144Z,96367.89
2018-06-24T23:31:36.038Z,96375.28
2018-06-24T23:34:06.552Z,96373.98
2018-06-24T23:36:36.782Z,96370.80
2018-06-24T23:39:09.770Z,96372.18
2018-06-24T23:41:39.690Z,96370.02
2018-06-24T23:44:09.834Z,96370.17
2018-06-24T23:46:39.948Z,96368.41
2018-06-24T23:49:09.830Z,96373.78
2018-06-24T23:51:39.666Z,96367.59
2018-06-24T23:54:09.872Z,96362.16
2018-06-24T23:56:39.916Z,96361.14
2018-06-24T23:59:09.926Z,96366.99
